Time;durP1;ratioP1;P1;durP2;ratioP2;P2;SDS_P1;SDS_P2;PMS_P1;PMS_P2;Temp;Humidity;BMP_temperature;BMP_pressure;BME280_temperature;BME280_humidity;BME280_pressure;Samples;Min_cycle;Max_cycle;Signal;HPM_P1;HPM_P2
2023/03/28 00:01:11;;;;;;;;;;;;;;;6.10;nan;99671.28;4938882;29;19970;-89
2023/03/28 00:03:56;;;;;;;;;;;;;;;6.02;nan;99668.59;4950836;29;20393;-91
2023/03/28 00:06:46;;;;;;;;;;;;;;;6.06;nan;99658.69;4952771;29;20000;-89
2023/03/28 00:09:30;;;;;;;;;;;;;;;6.09;nan;99659.22;4953017;29;19996;-90
2023/03/28 00:12:15;;;;;;;;;;;;;;;5.96;nan;99653.53;4953057;29;19921;-90
2023/03/28 00:14:59;;;;;;;;;;;;;;;6.05;nan;99651.84;4958100;29;20287;-90
2023/03/28 00:17:43;;;;;;;;;;;;;;;6.11;nan;99649.47;4944299;29;20013;-89
2023/03/28 00:20:28;;;;;;;;;;;;;;;6.06;nan;99643.88;4944663;29;20392;-90
2023/03/28 00:23:36;;;;;;;;;;;;;;;6.18;nan;99651.47;4930396;29;19985;-90
2023/03/28 00:26:25;;;;;;;;;;;;;;;6.17;nan;99642.81;4934435;29;19968;-90
2023/03/28 00:29:14;;;;;;;;;;;;;;;6.16;nan;99640.38;4934877;29;19922;-89
2023/03/28 00:31:58;;;;;;;;;;;;;;;6.10;nan;99639.19;4938389;29;19921;-90
2023/03/28 00:34:42;;;;;;;;;;;;;;;6.14;nan;99638.75;4947453;29;19952;-90
2023/03/28 00:37:26;;;;;;;;;;;;;;;6.06;nan;99640.47;4932024;29;20427;-89
2023/03/28 00:40:12;;;;;;;;;;;;;;;6.06;nan;99633.44;4946108;29;19937;-90
2023/03/28 00:42:56;;;;;;;;;;;;;;;6.04;nan;99631.97;4952107;29;19965;-89
2023/03/28 00:45:41;;;;;;;;;;;;;;;6.03;nan;99620.72;4924674;29;20001;-90
2023/03/28 00:48:25;;;;;;;;;;;;;;;5.98;nan;99617.72;4932637;29;20399;-90
2023/03/28 00:51:09;;;;;;;;;;;;;;;5.97;nan;99608.25;4947521;29;19921;-89
2023/03/28 00:53:56;;;;;;;;;;;;;;;5.98;nan;99617.72;4944627;29;19926;-89
2023/03/28 00:56:42;;;;;;;;;;;;;;;5.83;nan;99607.81;4951167;29;20005;-89
2023/03/28 00:59:28;;;;;;;;;;;;;;;5.91;nan;99614.09;4956894;29;19925;-90
2023/03/28 01:02:12;;;;;;;;;;;;;;;5.81;nan;99599.34;4934457;29;19925;-89
2023/03/28 01:04:58;;;;;;;;;;;;;;;5.88;nan;99598.72;4922082;29;19968;-90
2023/03/28 01:07:45;;;;;;;;;;;;;;;5.80;nan;99592.50;4926214;29;19967;-89
2023/03/28 01:10:31;;;;;;;;;;;;;;;5.77;nan;99598.00;4931068;29;20391;-90
2023/03/28 01:13:19;;;;;;;;;;;;;;;5.73;nan;99591.47;4927650;29;20010;-89
2023/03/28 01:16:07;;;;;;;;;;;;;;;5.81;nan;99594.13;4928186;29;19922;-89
2023/03/28 01:18:51;;;;;;;;;;;;;;;5.80;nan;99592.50;4931829;29;19921;-89
2023/03/28 01:21:35;;;;;;;;;;;;;;;5.94;nan;99582.50;4951750;29;20006;-89
2023/03/28 01:24:38;;;;;;;;;;;;;;;6.00;nan;99576.69;4944342;29;20009;-89
2023/03/28 01:27:29;;;;;;;;;;;;;;;6.00;nan;99571.47;4928971;29;20046;-90
2023/03/28 01:30:32;;;;;;;;;;;;;;;6.00;nan;99564.50;4926111;29;19922;-91
2023/03/28 01:33:31;;;;;;;;;;;;;;;6.09;nan;99560.19;4931257;29;20159;-89
2023/03/28 01:36:31;;;;;;;;;;;;;;;6.01;nan;99565.31;4931127;29;19922;-89
2023/03/28 01:39:47;;;;;;;;;;;;;;;5.95;nan;99560.69;4931418;29;20396;-90
2023/03/28 01:42:46;;;;;;;;;;;;;;;6.04;nan;99567.63;4897131;29;19954;-89
2023/03/28 01:45:42;;;;;;;;;;;;;;;6.14;nan;99557.94;4942216;29;19938;-89
2023/03/28 01:48:35;;;;;;;;;;;;;;;6.17;nan;99556.00;4927630;29;20002;-88
2023/03/28 01:51:38;;;;;;;;;;;;;;;6.17;nan;99554.19;4932636;29;19968;-89
2023/03/28 01:54:44;;;;;;;;;;;;;;;6.30;nan;99545.97;4927830;29;20011;-89
2023/03/28 01:57:33;;;;;;;;;;;;;;;6.28;nan;99553.13;4929010;29;19981;-90
2023/03/28 02:00:18;;;;;;;;;;;;;;;6.25;nan;99559.47;4929249;29;19990;-88
2023/03/28 02:03:06;;;;;;;;;;;;;;;6.41;nan;99542.28;4931261;28;19925;-88
2023/03/28 02:05:51;;;;;;;;;;;;;;;6.35;nan;99543.72;4950505;29;19925;-90
2023/03/28 02:08:38;;;;;;;;;;;;;;;6.38;nan;99537.38;4952284;29;19920;-89
2023/03/28 02:11:24;;;;;;;;;;;;;;;6.41;nan;99537.88;4931449;29;19921;-90
2023/03/28 02:14:09;;;;;;;;;;;;;;;6.41;nan;99530.06;4954223;29;19973;-88
2023/03/28 02:16:59;;;;;;;;;;;;;;;6.42;nan;99523.06;4951473;29;20021;-89
2023/03/28 02:19:49;;;;;;;;;;;;;;;6.37;nan;99530.50;4933001;29;20038;-88
2023/03/28 02:22:33;;;;;;;;;;;;;;;6.51;nan;99523.94;4954656;29;19934;-88
2023/03/28 02:25:17;;;;;;;;;;;;;;;6.49;nan;99512.84;4932856;29;19933;-89
2023/03/28 02:28:04;;;;;;;;;;;;;;;6.53;nan;99524.59;4948660;29;19934;-90
2023/03/28 02:30:48;;;;;;;;;;;;;;;6.52;nan;99517.72;4934199;29;20776;-90
2023/03/28 02:33:38;;;;;;;;;;;;;;;6.55;nan;99512.19;4931358;29;19941;-90
2023/03/28 02:36:25;;;;;;;;;;;;;;;6.58;nan;99514.50;4938777;29;19999;-89
2023/03/28 02:39:12;;;;;;;;;;;;;;;6.67;nan;99500.50;4951443;29;20022;-90
2023/03/28 02:42:11;;;;;;;;;;;;;;;6.67;nan;99494.47;4935484;29;20026;-89
2023/03/28 02:44:55;;;;;;;;;;;;;;;6.66;nan;99490.22;4939427;29;19920;-89
2023/03/28 02:47:42;;;;;;;;;;;;;;;6.68;nan;99490.88;4932738;29;19922;-89
2023/03/28 02:50:33;;;;;;;;;;;;;;;6.54;nan;99479.25;4928993;29;19981;-90
2023/03/28 02:53:21;;;;;;;;;;;;;;;6.53;nan;99478.44;4935259;29;20395;-89
2023/03/28 02:56:08;;;;;;;;;;;;;;;6.64;nan;99466.91;4938030;29;19921;-90
2023/03/28 02:59:15;;;;;;;;;;;;;;;6.69;nan;99462.03;4940572;29;19926;-89
2023/03/28 03:02:01;;;;;;;;;;;;;;;6.75;nan;99459.78;4946256;29;19926;-89
2023/03/28 03:04:45;;;;;;;;;;;;;;;6.60;nan;99442.13;4952409;29;19922;-89
2023/03/28 03:07:32;;;;;;;;;;;;;;;6.69;nan;99448.16;4954145;29;20017;-89
2023/03/28 03:10:16;;;;;;;;;;;;;;;6.66;nan;99445.88;4933577;29;19921;-89
2023/03/28 03:13:00;;;;;;;;;;;;;;;6.75;nan;99444.13;4953182;29;19920;-90
2023/03/28 03:15:45;;;;;;;;;;;;;;;6.80;nan;99436.63;4935517;29;19922;-90
2023/03/28 03:18:28;;;;;;;;;;;;;;;6.64;nan;99434.78;4935137;29;19921;-89
2023/03/28 03:21:13;;;;;;;;;;;;;;;6.74;nan;99432.84;4949730;29;19932;-89
2023/03/28 03:23:56;;;;;;;;;;;;;;;6.80;nan;99426.19;4952638;29;19926;-89
2023/03/28 03:26:40;;;;;;;;;;;;;;;6.74;nan;99424.22;4934203;29;19921;-90
2023/03/28 03:29:24;;;;;;;;;;;;;;;6.80;nan;99421.78;4944252;29;20425;-89
2023/03/28 03:32:09;;;;;;;;;;;;;;;6.68;nan;99420.44;4953549;29;20388;-90
2023/03/28 03:34:52;;;;;;;;;;;;;;;6.61;nan;99415.06;4948931;29;19929;-89
2023/03/28 03:37:37;;;;;;;;;;;;;;;6.84;nan;99406.63;4937777;29;20014;-88
2023/03/28 03:40:20;;;;;;;;;;;;;;;6.81;nan;99397.34;4952233;29;19944;-90
2023/03/28 03:43:05;;;;;;;;;;;;;;;6.74;nan;99404.16;4936522;29;19933;-90
2023/03/28 03:45:48;;;;;;;;;;;;;;;6.82;nan;99392.91;4948576;29;19965;-90
2023/03/28 03:48:32;;;;;;;;;;;;;;;6.79;nan;99383.63;4934047;29;19922;-90
2023/03/28 03:51:16;;;;;;;;;;;;;;;6.78;nan;99378.56;4934497;29;19921;-89
2023/03/28 03:54:00;;;;;;;;;;;;;;;6.86;nan;99378.56;4943837;29;19968;-89
2023/03/28 03:56:44;;;;;;;;;;;;;;;6.79;nan;99378.41;4955366;29;20391;-89
2023/03/28 03:59:29;;;;;;;;;;;;;;;6.75;nan;99374.47;4931957;29;19962;-89
2023/03/28 04:02:12;;;;;;;;;;;;;;;6.70;nan;99374.97;4952258;29;20385;-89
2023/03/28 04:04:58;;;;;;;;;;;;;;;6.74;nan;99364.22;4929783;29;19930;-88
2023/03/28 04:07:42;;;;;;;;;;;;;;;6.75;nan;99365.84;4952699;29;19987;-89
2023/03/28 04:10:26;;;;;;;;;;;;;;;6.77;nan;99363.88;4946808;29;21532;-89
2023/03/28 04:13:10;;;;;;;;;;;;;;;6.71;nan;99354.91;4951840;29;20384;-89
2023/03/28 04:15:54;;;;;;;;;;;;;;;6.74;nan;99366.81;4951207;29;20005;-90
2023/03/28 04:18:38;;;;;;;;;;;;;;;6.68;nan;99363.88;4952767;29;20038;-90
2023/03/28 04:21:26;;;;;;;;;;;;;;;6.71;nan;99360.13;4952324;29;20018;-89
2023/03/28 04:24:14;;;;;;;;;;;;;;;6.71;nan;99355.75;4943671;29;20277;-90
2023/03/28 04:26:58;;;;;;;;;;;;;;;6.77;nan;99353.44;4949561;28;19921;-89
2023/03/28 04:29:42;;;;;;;;;;;;;;;6.78;nan;99357.69;4953519;29;19925;-90
2023/03/28 04:32:26;;;;;;;;;;;;;;;6.64;nan;99346.09;4934776;29;19991;-90
2023/03/28 04:35:11;;;;;;;;;;;;;;;6.82;nan;99353.78;4951738;29;20320;-90
2023/03/28 04:37:59;;;;;;;;;;;;;;;6.75;nan;99351.00;4950697;29;19921;-89
2023/03/28 04:40:44;;;;;;;;;;;;;;;6.80;nan;99353.13;4953624;29;19929;-90
2023/03/28 04:43:28;;;;;;;;;;;;;;;6.71;nan;99360.13;4953097;29;19922;-89
2023/03/28 04:46:12;;;;;;;;;;;;;;;6.69;nan;99352.47;4953033;29;20062;-89
2023/03/28 04:48:56;;;;;;;;;;;;;;;6.74;nan;99351.16;4934827;29;19961;-90
2023/03/28 04:51:40;;;;;;;;;;;;;;;6.65;nan;99356.38;4932650;29;20032;-89
2023/03/28 04:54:24;;;;;;;;;;;;;;;6.71;nan;99350.53;4946518;29;19994;-88
2023/03/28 04:57:08;;;;;;;;;;;;;;;6.71;nan;99349.69;4930825;29;19944;-88
2023/03/28 04:59:52;;;;;;;;;;;;;;;6.71;nan;99349.69;4932537;29;19928;-89
2023/03/28 05:02:36;;;;;;;;;;;;;;;6.67;nan;99343.97;4945183;29;19968;-89
2023/03/28 05:05:20;;;;;;;;;;;;;;;6.65;nan;99332.88;4934009;29;19930;-90
2023/03/28 05:08:03;;;;;;;;;;;;;;;6.62;nan;99345.44;4947333;29;19921;-90
2023/03/28 05:10:48;;;;;;;;;;;;;;;6.68;nan;99345.63;4930327;29;20395;-88
2023/03/28 05:13:33;;;;;;;;;;;;;;;6.75;nan;99339.75;4935695;29;19936;-89
2023/03/28 05:16:17;;;;;;;;;;;;;;;6.59;nan;99341.38;4927021;29;19929;-90
2023/03/28 05:19:01;;;;;;;;;;;;;;;6.49;nan;99336.28;4933901;29;19928;-90
2023/03/28 05:21:45;;;;;;;;;;;;;;;6.72;nan;99346.09;4943287;29;20027;-89
2023/03/28 05:24:29;;;;;;;;;;;;;;;6.65;nan;99335.50;4934610;29;19922;-90
2023/03/28 05:27:13;;;;;;;;;;;;;;;6.66;nan;99338.94;4928836;29;19935;-91
2023/03/28 05:30:00;;;;;;;;;;;;;;;6.66;nan;99331.91;4932489;29;20077;-90
2023/03/28 05:32:44;;;;;;;;;;;;;;;6.63;nan;99334.84;4953063;29;19921;-90
2023/03/28 05:35:28;;;;;;;;;;;;;;;6.64;nan;99328.66;4932658;29;19982;-89
2023/03/28 05:38:13;;;;;;;;;;;;;;;6.61;nan;99322.97;4945299;28;19925;-89
2023/03/28 05:40:57;;;;;;;;;;;;;;;6.64;nan;99328.66;4948185;29;19964;-89
2023/03/28 05:43:41;;;;;;;;;;;;;;;6.57;nan;99315.44;4927559;29;20285;-90
2023/03/28 05:46:25;;;;;;;;;;;;;;;6.49;nan;99317.25;4929790;29;19921;-88
2023/03/28 05:49:10;;;;;;;;;;;;;;;6.62;nan;99311.53;4950969;29;19921;-90
2023/03/28 05:51:54;;;;;;;;;;;;;;;6.51;nan;99315.28;4932251;29;19921;-88
2023/03/28 05:54:38;;;;;;;;;;;;;;;6.61;nan;99302.91;4928281;29;20329;-91
2023/03/28 05:57:23;;;;;;;;;;;;;;;6.57;nan;99319.84;4937037;29;20383;-89
2023/03/28 06:00:09;;;;;;;;;;;;;;;6.60;nan;99308.28;4933055;29;20008;-89
2023/03/28 06:02:54;;;;;;;;;;;;;;;6.55;nan;99304.34;4935208;29;20006;-88
2023/03/28 06:05:38;;;;;;;;;;;;;;;6.52;nan;99309.09;4952098;29;19981;-89
2023/03/28 06:08:22;;;;;;;;;;;;;;;6.60;nan;99306.47;4940847;29;19920;-90
2023/03/28 06:11:06;;;;;;;;;;;;;;;6.60;nan;99303.88;4928356;29;19922;-88
2023/03/28 06:13:50;;;;;;;;;;;;;;;6.40;nan;99301.56;4947598;29;19938;-88
2023/03/28 06:16:35;;;;;;;;;;;;;;;6.58;nan;99298.00;4935633;29;20004;-89
2023/03/28 06:19:19;;;;;;;;;;;;;;;6.50;nan;99290.97;4940882;29;19947;-87
2023/03/28 06:22:03;;;;;;;;;;;;;;;6.53;nan;99282.03;4931967;29;20304;-88
2023/03/28 06:24:47;;;;;;;;;;;;;;;6.60;nan;99277.78;4925523;29;20029;-89
2023/03/28 06:27:31;;;;;;;;;;;;;;;6.65;nan;99267.66;4927101;29;19921;-88
2023/03/28 06:30:15;;;;;;;;;;;;;;;6.69;nan;99261.19;4946430;29;19921;-88
2023/03/28 06:32:59;;;;;;;;;;;;;;;6.81;nan;99266.03;4953709;29;19965;-90
2023/03/28 06:35:43;;;;;;;;;;;;;;;6.81;nan;99255.59;4946559;29;19937;-90
2023/03/28 06:38:27;;;;;;;;;;;;;;;6.74;nan;99254.66;4945112;29;20439;-90
2023/03/28 06:41:11;;;;;;;;;;;;;;;6.78;nan;99256.78;4936325;29;19957;-90
2023/03/28 06:47:24;;;;;;;;;;;;;;;6.81;nan;99242.56;4946179;29;20392;-89
2023/03/28 06:50:08;;;;;;;;;;;;;;;6.84;nan;99248.28;4952558;28;19922;-89
2023/03/28 06:52:52;;;;;;;;;;;;;;;6.76;nan;99252.69;4947603;29;19938;-89
2023/03/28 06:55:36;;;;;;;;;;;;;;;6.94;nan;99249.88;4935266;29;19926;-90
2023/03/28 06:58:24;;;;;;;;;;;;;;;6.88;nan;99256.59;4953419;29;19926;-89
2023/03/28 07:01:37;;;;;;;;;;;;;;;6.97;nan;99254.75;4942770;29;19926;-90
2023/03/28 07:04:21;;;;;;;;;;;;;;;7.21;nan;99246.06;4933926;29;19973;-90
2023/03/28 07:07:06;;;;;;;;;;;;;;;7.22;nan;99247.69;4951045;29;19921;-90
2023/03/28 07:09:53;;;;;;;;;;;;;;;7.18;nan;99240.41;4927893;29;19929;-88
2023/03/28 07:12:37;;;;;;;;;;;;;;;7.28;nan;99235.78;4953319;29;19961;-87
2023/03/28 07:15:21;;;;;;;;;;;;;;;7.41;nan;99227.41;4953913;29;19922;-88
2023/03/28 07:18:05;;;;;;;;;;;;;;;7.38;nan;99220.75;4952355;29;20420;-90
2023/03/28 07:20:50;;;;;;;;;;;;;;;7.40;nan;99220.56;4959493;29;20009;-90
2023/03/28 07:23:43;;;;;;;;;;;;;;;7.40;nan;99220.56;4941917;29;20392;-89
2023/03/28 07:26:27;;;;;;;;;;;;;;;7.38;nan;99219.91;4959423;29;19965;-89
2023/03/28 07:29:11;;;;;;;;;;;;;;;7.49;nan;99214.34;4942621;29;19922;-90
2023/03/28 07:31:56;;;;;;;;;;;;;;;7.49;nan;99211.72;4936437;29;20407;-90
2023/03/28 07:34:42;;;;;;;;;;;;;;;7.70;nan;99207.69;4943282;29;20046;-90
2023/03/28 07:37:26;;;;;;;;;;;;;;;7.76;nan;99199.16;4941920;29;19921;-90
2023/03/28 07:40:11;;;;;;;;;;;;;;;7.86;nan;99194.56;4946980;29;20280;-90
2023/03/28 07:42:55;;;;;;;;;;;;;;;7.88;nan;99190.94;4949198;29;19969;-90
2023/03/28 07:45:42;;;;;;;;;;;;;;;7.90;nan;99181.13;4953023;29;19921;-90
2023/03/28 07:48:26;;;;;;;;;;;;;;;7.97;nan;99176.81;4961046;29;19921;-90
2023/03/28 07:51:11;;;;;;;;;;;;;;;8.02;nan;99169.25;4959152;29;20003;-90
2023/03/28 07:53:56;;;;;;;;;;;;;;;8.01;nan;99170.25;4947726;29;19930;-91
2023/03/28 07:56:40;;;;;;;;;;;;;;;8.21;nan;99157.53;4946206;29;19921;-91
2023/03/28 07:59:24;;;;;;;;;;;;;;;8.19;nan;99153.47;4930820;29;19921;-91
2023/03/28 08:02:10;;;;;;;;;;;;;;;8.46;nan;99156.53;4952338;28;19965;-90
2023/03/28 08:04:54;;;;;;;;;;;;;;;8.61;nan;99153.94;4957924;29;19968;-90
2023/03/28 08:07:40;;;;;;;;;;;;;;;8.70;nan;99151.06;4906516;29;20284;-90
2023/03/28 08:10:24;;;;;;;;;;;;;;;8.67;nan;99156.66;4906374;29;20289;-91
2023/03/28 08:13:09;;;;;;;;;;;;;;;8.64;nan;99161.44;4906850;29;20054;-90
2023/03/28 08:15:54;;;;;;;;;;;;;;;8.60;nan;99160.19;4928443;29;19930;-89
2023/03/28 08:18:38;;;;;;;;;;;;;;;8.59;nan;99169.81;4948002;29;20416;-89
2023/03/28 08:21:22;;;;;;;;;;;;;;;8.44;nan;99167.16;4923738;29;19957;-90
2023/03/28 08:24:06;;;;;;;;;;;;;;;8.25;nan;99158.81;4934808;29;20277;-90
2023/03/28 08:26:51;;;;;;;;;;;;;;;8.53;nan;99155.63;4940963;29;20280;-89
2023/03/28 08:29:35;;;;;;;;;;;;;;;8.56;nan;99139.59;4930564;29;20345;-87
2023/03/28 08:32:19;;;;;;;;;;;;;;;8.52;nan;99143.53;4943897;29;20329;-89
2023/03/28 08:35:05;;;;;;;;;;;;;;;8.64;nan;99137.88;4933355;29;19989;-90
2023/03/28 08:37:50;;;;;;;;;;;;;;;8.29;nan;99143.59;4922240;29;19921;-89
2023/03/28 08:40:35;;;;;;;;;;;;;;;8.72;nan;99145.63;4935646;29;20317;-89
2023/03/28 08:43:27;;;;;;;;;;;;;;;8.48;nan;99142.25;4943831;29;19973;-87
2023/03/28 08:46:14;;;;;;;;;;;;;;;8.56;nan;99134.38;4945264;29;20337;-88
2023/03/28 08:49:03;;;;;;;;;;;;;;;8.36;nan;99134.03;4953807;29;19984;-89
2023/03/28 08:51:58;;;;;;;;;;;;;;;8.50;nan;99127.22;4927726;29;20499;-88
2023/03/28 08:54:46;;;;;;;;;;;;;;;8.36;nan;99134.03;4927420;29;20699;-88
2023/03/28 08:57:31;;;;;;;;;;;;;;;8.43;nan;99129.69;4952658;29;20005;-88
2023/03/28 09:00:21;;;;;;;;;;;;;;;8.41;nan;99136.91;4943028;29;19929;-88
2023/03/28 09:03:11;;;;;;;;;;;;;;;8.18;nan;99120.47;4947867;29;19984;-90
2023/03/28 09:06:02;;;;;;;;;;;;;;;8.30;nan;99111.22;4933413;29;19957;-90
2023/03/28 09:08:47;;;;;;;;;;;;;;;8.29;nan;99106.97;4951415;29;19921;-89
2023/03/28 09:11:41;;;;;;;;;;;;;;;8.37;nan;99109.50;4937318;29;20344;-90
2023/03/28 09:14:40;;;;;;;;;;;;;;;8.32;nan;99100.56;4928449;29;20352;-90
2023/03/28 09:17:45;;;;;;;;;;;;;;;8.25;nan;99097.84;4941312;29;20435;-89
2023/03/28 09:20:53;;;;;;;;;;;;;;;8.40;nan;99088.22;4920497;29;19997;-90
2023/03/28 09:23:37;;;;;;;;;;;;;;;8.65;nan;99095.84;4935613;29;19929;-89
2023/03/28 09:40:57;;;;;;;;;;;;;;;9.18;nan;99079.16;4893757;29;19926;-90
2023/03/28 09:43:41;;;;;;;;;;;;;;;9.00;nan;99076.97;4871294;29;19975;-91
2023/03/28 09:46:32;;;;;;;;;;;;;;;8.84;nan;99068.31;4882132;29;20253;-90
2023/03/28 09:49:18;;;;;;;;;;;;;;;8.85;nan;99061.28;4949802;29;20431;-89
2023/03/28 09:52:12;;;;;;;;;;;;;;;8.81;nan;99070.47;4908246;29;19921;-89
2023/03/28 09:54:59;;;;;;;;;;;;;;;8.78;nan;99070.84;4939962;29;19926;-89
2023/03/28 09:58:00;;;;;;;;;;;;;;;8.78;nan;99063.81;4923207;29;19922;-89
2023/03/28 10:00:51;;;;;;;;;;;;;;;8.34;nan;99061.94;4955882;29;19922;-89
2023/03/28 10:03:35;;;;;;;;;;;;;;;8.53;nan;99056.22;4930687;29;20017;-90
2023/03/28 10:06:24;;;;;;;;;;;;;;;8.50;nan;99053.16;4949887;29;19922;-90
2023/03/28 10:09:17;;;;;;;;;;;;;;;8.50;nan;99056.59;4938671;29;19921;-89
2023/03/28 10:12:08;;;;;;;;;;;;;;;8.46;nan;99054.50;4940967;29;19921;-89
2023/03/28 10:14:53;;;;;;;;;;;;;;;8.52;nan;99051.19;4925024;29;19961;-90
2023/03/28 10:17:37;;;;;;;;;;;;;;;8.56;nan;99049.81;4953106;29;19982;-90
2023/03/28 10:20:22;;;;;;;;;;;;;;;8.65;nan;99048.75;4953060;29;19965;-91
2023/03/28 10:23:07;;;;;;;;;;;;;;;8.57;nan;99046.22;4938858;29;19925;-90
2023/03/28 10:25:52;;;;;;;;;;;;;;;8.42;nan;99040.97;4952119;28;20420;-90
2023/03/28 10:28:36;;;;;;;;;;;;;;;8.64;nan;99038.44;4954146;29;20025;-91
2023/03/28 10:31:22;;;;;;;;;;;;;;;8.50;nan;99029.63;4957859;29;19929;-91
2023/03/28 10:34:21;;;;;;;;;;;;;;;8.56;nan;99029.72;4946303;29;19937;-90
2023/03/28 10:37:22;;;;;;;;;;;;;;;8.67;nan;99035.47;4946303;29;19980;-90
2023/03/28 10:40:22;;;;;;;;;;;;;;;8.51;nan;99020.78;4938113;29;19923;-90
2023/03/28 10:43:12;;;;;;;;;;;;;;;8.54;nan;99009.94;4955800;29;19926;-90
2023/03/28 10:45:59;;;;;;;;;;;;;;;8.50;nan;99016.53;4945925;29;19981;-90
2023/03/28 10:48:56;;;;;;;;;;;;;;;8.66;nan;99005.88;4945405;29;19965;-91
2023/03/28 10:51:41;;;;;;;;;;;;;;;8.71;nan;99005.31;4945584;29;19968;-90
2023/03/28 10:54:31;;;;;;;;;;;;;;;8.68;nan;99003.91;4945616;29;19945;-90
2023/03/28 10:57:18;;;;;;;;;;;;;;;8.56;nan;98998.31;4945513;29;19938;-90
2023/03/28 11:00:15;;;;;;;;;;;;;;;8.60;nan;98993.53;4933685;29;19926;-89
2023/03/28 11:03:02;;;;;;;;;;;;;;;8.55;nan;98983.63;4952697;29;19930;-90
2023/03/28 11:05:55;;;;;;;;;;;;;;;8.41;nan;98979.97;4926011;29;20459;-90
2023/03/28 11:12:26;;;;;;;;;;;;;;;8.69;nan;98979.34;4940875;29;19938;-91
2023/03/28 11:15:17;;;;;;;;;;;;;;;8.78;nan;98974.81;4926092;29;19937;-90
2023/03/28 11:18:01;;;;;;;;;;;;;;;8.77;nan;98961.91;4952965;29;20003;-90
2023/03/28 11:21:04;;;;;;;;;;;;;;;9.05;nan;98953.34;4925645;29;19985;-91
2023/03/28 11:23:57;;;;;;;;;;;;;;;9.03;nan;98950.09;4926516;29;19929;-90
2023/03/28 11:26:59;;;;;;;;;;;;;;;9.05;nan;98942.88;4925958;29;19925;-90
2023/03/28 11:29:45;;;;;;;;;;;;;;;9.02;nan;98938.00;4931176;29;20436;-89
2023/03/28 11:32:43;;;;;;;;;;;;;;;8.95;nan;98932.72;4929373;29;19921;-90
2023/03/28 11:35:31;;;;;;;;;;;;;;;8.99;nan;98923.47;4941347;29;19925;-90
2023/03/28 11:38:21;;;;;;;;;;;;;;;9.05;nan;98916.69;4950132;29;19969;-89
2023/03/28 11:41:11;;;;;;;;;;;;;;;9.17;nan;98909.94;4928722;29;19921;-90
2023/03/28 11:43:58;;;;;;;;;;;;;;;9.45;nan;98905.72;4925737;29;19921;-90
2023/03/28 11:46:57;;;;;;;;;;;;;;;9.72;nan;98901.47;4927085;29;19965;-90
2023/03/28 11:49:46;;;;;;;;;;;;;;;9.78;nan;98905.16;4933873;29;19928;-90
2023/03/28 11:52:44;;;;;;;;;;;;;;;9.61;nan;98900.19;4930617;29;20400;-90
2023/03/28 11:55:33;;;;;;;;;;;;;;;9.66;nan;98895.19;4926612;29;19969;-91
2023/03/28 11:58:23;;;;;;;;;;;;;;;9.56;nan;98889.50;4925099;29;20416;-90
2023/03/28 12:01:11;;;;;;;;;;;;;;;9.43;nan;98882.31;4952684;29;19966;-90
2023/03/28 12:04:19;;;;;;;;;;;;;;;9.63;nan;98879.84;4952778;29;20060;-91
2023/03/28 12:07:15;;;;;;;;;;;;;;;9.84;nan;98865.88;4953034;29;20297;-90
2023/03/28 12:10:05;;;;;;;;;;;;;;;9.99;nan;98872.78;4932571;29;19921;-90
2023/03/28 12:12:54;;;;;;;;;;;;;;;9.85;nan;98864.03;4926682;29;20380;-90
2023/03/28 12:15:52;;;;;;;;;;;;;;;9.93;nan;98865.69;4931526;29;19922;-90
2023/03/28 12:18:43;;;;;;;;;;;;;;;10.05;nan;98852.84;4949389;29;19922;-89
2023/03/28 12:21:44;;;;;;;;;;;;;;;10.13;nan;98850.84;4946415;29;19946;-90
2023/03/28 12:24:41;;;;;;;;;;;;;;;10.19;nan;98838.78;4949598;29;19920;-91
2023/03/28 12:27:55;;;;;;;;;;;;;;;10.14;nan;98831.50;4945794;29;19984;-91
2023/03/28 12:30:44;;;;;;;;;;;;;;;9.85;nan;98832.59;4927019;29;19960;-90
2023/03/28 12:33:51;;;;;;;;;;;;;;;9.89;nan;98820.69;4909670;29;19961;-91
2023/03/28 12:36:48;;;;;;;;;;;;;;;9.75;nan;98827.69;4927680;29;19920;-92
2023/03/28 12:39:51;;;;;;;;;;;;;;;9.66;nan;98828.88;4924412;29;19920;-90
2023/03/28 12:42:35;;;;;;;;;;;;;;;9.63;nan;98818.75;4905668;29;19926;-91
2023/03/28 12:45:30;;;;;;;;;;;;;;;9.76;nan;98804.94;4937176;29;19964;-90
2023/03/28 12:48:22;;;;;;;;;;;;;;;9.47;nan;98805.00;4941573;29;19922;-90
2023/03/28 12:51:21;;;;;;;;;;;;;;;9.61;nan;98799.81;4956467;29;19921;-91
2023/03/28 12:54:14;;;;;;;;;;;;;;;9.82;nan;98796.28;4928466;29;19925;-90
2023/03/28 12:57:18;;;;;;;;;;;;;;;9.89;nan;98791.06;4938784;29;19925;-90
2023/03/28 13:00:09;;;;;;;;;;;;;;;9.96;nan;98781.41;4935740;29;19925;-90
2023/03/28 13:03:05;;;;;;;;;;;;;;;9.99;nan;98765.28;4948353;29;20102;-91
2023/03/28 13:05:57;;;;;;;;;;;;;;;10.03;nan;98760.44;4927992;29;19926;-88
2023/03/28 13:08:44;;;;;;;;;;;;;;;10.18;nan;98753.22;4946752;29;19938;-89
2023/03/28 13:11:35;;;;;;;;;;;;;;;10.26;nan;98749.63;4929686;29;19971;-88
2023/03/28 13:14:21;;;;;;;;;;;;;;;10.17;nan;98745.53;4924267;29;20420;-89
2023/03/28 13:17:22;;;;;;;;;;;;;;;10.23;nan;98739.53;4931001;29;19929;-88
2023/03/28 13:20:15;;;;;;;;;;;;;;;10.18;nan;98741.91;4931887;29;19937;-87
2023/03/28 13:23:05;;;;;;;;;;;;;;;10.05;nan;98732.22;4929810;29;19969;-86
2023/03/28 13:26:08;;;;;;;;;;;;;;;10.10;nan;98735.88;4928208;29;20002;-88
2023/03/28 13:28:57;;;;;;;;;;;;;;;10.28;nan;98722.16;4926970;29;20333;-86
2023/03/28 13:31:42;;;;;;;;;;;;;;;10.46;nan;98714.75;4947691;29;20016;-87
2023/03/28 13:34:31;;;;;;;;;;;;;;;10.09;nan;98721.13;4941407;29;20005;-86
2023/03/28 13:37:17;;;;;;;;;;;;;;;10.06;nan;98721.53;4945793;29;19948;-87
2023/03/28 13:40:00;;;;;;;;;;;;;;;9.77;nan;98712.97;4925599;29;19966;-87
2023/03/28 13:42:56;;;;;;;;;;;;;;;10.02;nan;98720.28;4951372;29;20333;-87
2023/03/28 13:45:40;;;;;;;;;;;;;;;10.07;nan;98723.16;4925438;29;19921;-87
2023/03/28 13:48:27;;;;;;;;;;;;;;;10.17;nan;98711.44;4948606;29;19962;-87
2023/03/28 13:51:15;;;;;;;;;;;;;;;10.01;nan;98697.69;4932045;29;20288;-86
2023/03/28 13:53:59;;;;;;;;;;;;;;;10.07;nan;98703.97;4932676;29;19929;-86
2023/03/28 13:56:45;;;;;;;;;;;;;;;10.19;nan;98693.69;4932473;29;19965;-87
2023/03/28 13:59:47;;;;;;;;;;;;;;;10.20;nan;98703.19;4931477;29;20424;-87
2023/03/28 14:02:45;;;;;;;;;;;;;;;10.09;nan;98686.22;4934681;29;20034;-86
2023/03/28 14:05:31;;;;;;;;;;;;;;;10.07;nan;98683.00;4947424;29;19937;-88
2023/03/28 14:08:14;;;;;;;;;;;;;;;10.03;nan;98681.78;4947458;29;19976;-88
2023/03/28 14:10:59;;;;;;;;;;;;;;;9.82;nan;98673.88;4948606;29;19921;-87
2023/03/28 14:13:44;;;;;;;;;;;;;;;9.82;nan;98666.00;4950720;29;19921;-87
2023/03/28 14:16:29;;;;;;;;;;;;;;;9.85;nan;98665.63;4950505;29;19922;-87
2023/03/28 14:19:19;;;;;;;;;;;;;;;9.79;nan;98650.69;4934921;29;20005;-87
2023/03/28 14:22:07;;;;;;;;;;;;;;;9.69;nan;98650.28;4934260;29;19926;-89
2023/03/28 14:24:53;;;;;;;;;;;;;;;9.94;nan;98644.47;4952988;29;19942;-86
2023/03/28 14:27:40;;;;;;;;;;;;;;;9.93;nan;98634.97;4942583;29;20018;-87
2023/03/28 14:30:26;;;;;;;;;;;;;;;9.94;nan;98633.97;4928561;29;20285;-90
2023/03/28 14:33:09;;;;;;;;;;;;;;;9.84;nan;98624.69;4948908;29;19982;-87
2023/03/28 14:35:55;;;;;;;;;;;;;;;10.00;nan;98627.91;4930750;29;19977;-85
2023/03/28 14:38:40;;;;;;;;;;;;;;;9.88;nan;98616.44;4932267;29;19938;-88
2023/03/28 14:41:28;;;;;;;;;;;;;;;9.91;nan;98608.16;4929837;29;20337;-90
2023/03/28 14:44:12;;;;;;;;;;;;;;;9.82;nan;98612.78;4950281;29;20549;-86
2023/03/28 14:46:57;;;;;;;;;;;;;;;9.75;nan;98610.16;4928117;29;19983;-86
2023/03/28 14:49:44;;;;;;;;;;;;;;;9.84;nan;98601.09;4947522;29;19925;-87
2023/03/28 14:52:30;;;;;;;;;;;;;;;10.06;nan;98603.53;4949440;29;19937;-88
2023/03/28 14:55:16;;;;;;;;;;;;;;;9.98;nan;98588.81;4946743;29;20020;-86
2023/03/28 14:58:01;;;;;;;;;;;;;;;9.99;nan;98582.56;4948679;29;20013;-88
2023/03/28 15:00:46;;;;;;;;;;;;;;;10.23;nan;98576.91;4945101;29;19962;-89
2023/03/28 15:03:37;;;;;;;;;;;;;;;10.46;nan;98570.44;4941657;29;19965;-88
2023/03/28 15:06:22;;;;;;;;;;;;;;;10.43;nan;98569.84;4926357;29;19930;-87
2023/03/28 15:09:27;;;;;;;;;;;;;;;10.45;nan;98558.31;4946109;29;21443;-86
2023/03/28 15:12:13;;;;;;;;;;;;;;;10.31;nan;98563.56;4929700;29;19929;-86
2023/03/28 15:14:57;;;;;;;;;;;;;;;10.06;nan;98550.28;4945803;29;20399;-86
2023/03/28 15:17:41;;;;;;;;;;;;;;;10.11;nan;98538.16;4931689;29;19920;-88
2023/03/28 15:20:30;;;;;;;;;;;;;;;9.91;nan;98532.13;4952577;29;19997;-89
2023/03/28 15:23:16;;;;;;;;;;;;;;;10.00;nan;98536.16;4930340;29;19925;-87
2023/03/28 15:26:02;;;;;;;;;;;;;;;9.69;nan;98525.28;4946422;29;19977;-88
2023/03/28 15:28:47;;;;;;;;;;;;;;;9.84;nan;98522.47;4933311;29;20419;-87
2023/03/28 15:31:31;;;;;;;;;;;;;;;9.81;nan;98516.81;4945107;29;19956;-87